sensor_id;sensor_type;location;lat;lon;timestamp;temperature;humidity
29353;DHT22;16344;50.364;8.944;2023-03-30T00:00:08;12.90;99.90
29353;DHT22;16344;50.364;8.944;2023-03-30T00:02:43;12.90;99.90
29353;DHT22;16344;50.364;8.944;2023-03-30T00:05:09;12.90;99.90
29353;DHT22;16344;50.364;8.944;2023-03-30T00:07:35;12.90;99.90
29353;DHT22;16344;50.364;8.944;2023-03-30T00:10:03;12.90;99.90
29353;DHT22;16344;50.364;8.944;2023-03-30T00:12:29;12.90;99.90
29353;DHT22;16344;50.364;8.944;2023-03-30T00:14:55;13.00;99.90
29353;DHT22;16344;50.364;8.944;2023-03-30T00:17:20;13.00;99.90
29353;DHT22;16344;50.364;8.944;2023-03-30T00:19:46;12.90;99.90
29353;DHT22;16344;50.364;8.944;2023-03-30T00:22:12;13.00;99.90
29353;DHT22;16344;50.364;8.944;2023-03-30T00:24:38;13.00;99.90
29353;DHT22;16344;50.364;8.944;2023-03-30T00:27:03;13.00;99.90
29353;DHT22;16344;50.364;8.944;2023-03-30T00:29:29;12.90;99.90
29353;DHT22;16344;50.364;8.944;2023-03-30T00:31:54;12.90;99.90
29353;DHT22;16344;50.364;8.944;2023-03-30T00:34:20;12.90;99.90
29353;DHT22;16344;50.364;8.944;2023-03-30T00:36:46;12.90;99.90
29353;DHT22;16344;50.364;8.944;2023-03-30T00:39:14;12.90;99.90
29353;DHT22;16344;50.364;8.944;2023-03-30T00:41:43;12.90;99.90
29353;DHT22;16344;50.364;8.944;2023-03-30T00:47:13;12.80;99.90
29353;DHT22;16344;50.364;8.944;2023-03-30T00:49:38;12.80;99.90
29353;DHT22;16344;50.364;8.944;2023-03-30T00:52:07;12.80;99.90
29353;DHT22;16344;50.364;8.944;2023-03-30T00:54:32;12.70;99.90
29353;DHT22;16344;50.364;8.944;2023-03-30T00:56:58;12.70;99.90
29353;DHT22;16344;50.364;8.944;2023-03-30T00:59:23;12.70;99.90
29353;DHT22;16344;50.364;8.944;2023-03-30T01:01:49;12.70;99.90
29353;DHT22;16344;50.364;8.944;2023-03-30T01:04:15;12.70;99.90
29353;DHT22;16344;50.364;8.944;2023-03-30T01:06:46;12.70;99.90
29353;DHT22;16344;50.364;8.944;2023-03-30T01:09:13;12.70;99.90
29353;DHT22;16344;50.364;8.944;2023-03-30T01:11:41;12.70;99.90
29353;DHT22;16344;50.364;8.944;2023-03-30T01:14:09;12.70;99.90
29353;DHT22;16344;50.364;8.944;2023-03-30T01:16:43;12.70;99.90
29353;DHT22;16344;50.364;8.944;2023-03-30T01:33:56;12.60;99.90
29353;DHT22;16344;50.364;8.944;2023-03-30T01:39:47;12.60;99.90
29353;DHT22;16344;50.364;8.944;2023-03-30T01:42:39;12.60;99.90
29353;DHT22;16344;50.364;8.944;2023-03-30T01:48:09;12.60;99.90
29353;DHT22;16344;50.364;8.944;2023-03-30T01:50:58;12.70;99.90
29353;DHT22;16344;50.364;8.944;2023-03-30T01:53:39;12.70;99.90
29353;DHT22;16344;50.364;8.944;2023-03-30T01:56:31;12.70;99.90
29353;DHT22;16344;50.364;8.944;2023-03-30T01:59:04;12.80;99.90
29353;DHT22;16344;50.364;8.944;2023-03-30T02:01:32;12.80;99.90
29353;DHT22;16344;50.364;8.944;2023-03-30T02:03:59;12.80;99.90
29353;DHT22;16344;50.364;8.944;2023-03-30T02:06:38;12.80;99.90
29353;DHT22;16344;50.364;8.944;2023-03-30T02:09:08;12.80;99.90
29353;DHT22;16344;50.364;8.944;2023-03-30T02:11:36;12.80;99.90
29353;DHT22;16344;50.364;8.944;2023-03-30T02:14:03;12.80;99.90
29353;DHT22;16344;50.364;8.944;2023-03-30T02:16:33;12.80;99.90
29353;DHT22;16344;50.364;8.944;2023-03-30T02:19:02;12.80;99.90
29353;DHT22;16344;50.364;8.944;2023-03-30T02:21:31;12.90;99.90
29353;DHT22;16344;50.364;8.944;2023-03-30T02:23:58;12.90;99.90
29353;DHT22;16344;50.364;8.944;2023-03-30T02:26:25;12.90;99.90
29353;DHT22;16344;50.364;8.944;2023-03-30T02:28:52;12.90;99.90
29353;DHT22;16344;50.364;8.944;2023-03-30T02:31:18;12.90;99.90
29353;DHT22;16344;50.364;8.944;2023-03-30T02:33:58;12.90;99.90
29353;DHT22;16344;50.364;8.944;2023-03-30T02:39:32;13.00;99.90
29353;DHT22;16344;50.364;8.944;2023-03-30T02:50:38;12.90;99.90
29353;DHT22;16344;50.364;8.944;2023-03-30T02:53:19;13.00;99.90
29353;DHT22;16344;50.364;8.944;2023-03-30T02:55:59;13.00;99.90
29353;DHT22;16344;50.364;8.944;2023-03-30T02:58:49;12.90;99.90
29353;DHT22;16344;50.364;8.944;2023-03-30T03:01:39;13.00;99.90
29353;DHT22;16344;50.364;8.944;2023-03-30T03:04:07;12.90;99.90
29353;DHT22;16344;50.364;8.944;2023-03-30T03:06:35;12.90;99.90
29353;DHT22;16344;50.364;8.944;2023-03-30T03:09:02;12.90;99.90
29353;DHT22;16344;50.364;8.944;2023-03-30T03:11:28;13.00;99.90
29353;DHT22;16344;50.364;8.944;2023-03-30T03:13:54;13.00;99.90
29353;DHT22;16344;50.364;8.944;2023-03-30T03:16:20;13.00;99.90
29353;DHT22;16344;50.364;8.944;2023-03-30T03:18:46;13.00;99.90
29353;DHT22;16344;50.364;8.944;2023-03-30T03:21:12;13.00;99.90
29353;DHT22;16344;50.364;8.944;2023-03-30T03:23:38;13.00;99.90
29353;DHT22;16344;50.364;8.944;2023-03-30T03:26:05;13.00;99.90
29353;DHT22;16344;50.364;8.944;2023-03-30T03:28:31;13.00;99.90
29353;DHT22;16344;50.364;8.944;2023-03-30T03:30:57;13.10;99.90
29353;DHT22;16344;50.364;8.944;2023-03-30T03:33:24;13.10;99.90
29353;DHT22;16344;50.364;8.944;2023-03-30T03:35:50;13.00;99.90
29353;DHT22;16344;50.364;8.944;2023-03-30T03:38:21;13.00;1.00
29353;DHT22;16344;50.364;8.944;2023-03-30T03:40:51;12.90;1.00
29353;DHT22;16344;50.364;8.944;2023-03-30T03:43:17;12.90;1.00
29353;DHT22;16344;50.364;8.944;2023-03-30T03:45:47;12.80;1.00
29353;DHT22;16344;50.364;8.944;2023-03-30T03:48:14;12.80;1.00
29353;DHT22;16344;50.364;8.944;2023-03-30T03:50:40;12.80;99.90
29353;DHT22;16344;50.364;8.944;2023-03-30T03:53:10;12.70;1.00
29353;DHT22;16344;50.364;8.944;2023-03-30T03:55:36;12.80;1.00
29353;DHT22;16344;50.364;8.944;2023-03-30T03:58:03;12.80;1.00
29353;DHT22;16344;50.364;8.944;2023-03-30T04:00:29;12.80;1.00
29353;DHT22;16344;50.364;8.944;2023-03-30T04:02:55;12.70;1.00
29353;DHT22;16344;50.364;8.944;2023-03-30T04:05:21;12.60;1.00
29353;DHT22;16344;50.364;8.944;2023-03-30T04:07:47;12.40;1.00
29353;DHT22;16344;50.364;8.944;2023-03-30T04:10:13;12.20;1.00
29353;DHT22;16344;50.364;8.944;2023-03-30T04:12:38;12.00;1.00
29353;DHT22;16344;50.364;8.944;2023-03-30T04:15:05;12.00;1.00
29353;DHT22;16344;50.364;8.944;2023-03-30T04:17:31;11.90;1.00
29353;DHT22;16344;50.364;8.944;2023-03-30T04:19:58;11.80;1.00
29353;DHT22;16344;50.364;8.944;2023-03-30T04:22:30;11.80;1.00
29353;DHT22;16344;50.364;8.944;2023-03-30T04:24:58;11.90;1.00
29353;DHT22;16344;50.364;8.944;2023-03-30T04:27:24;11.90;1.00
29353;DHT22;16344;50.364;8.944;2023-03-30T04:29:50;12.00;1.00
29353;DHT22;16344;50.364;8.944;2023-03-30T04:32:16;12.00;1.00
29353;DHT22;16344;50.364;8.944;2023-03-30T04:34:45;12.00;1.00
29353;DHT22;16344;50.364;8.944;2023-03-30T04:37:11;12.00;1.00
29353;DHT22;16344;50.364;8.944;2023-03-30T04:39:45;12.10;1.00
29353;DHT22;16344;50.364;8.944;2023-03-30T04:42:11;12.10;1.00
29353;DHT22;16344;50.364;8.944;2023-03-30T04:44:39;12.10;1.00
29353;DHT22;16344;50.364;8.944;2023-03-30T04:47:05;12.10;1.00
29353;DHT22;16344;50.364;8.944;2023-03-30T04:49:31;12.10;1.00
29353;DHT22;16344;50.364;8.944;2023-03-30T04:51:57;12.10;1.00
29353;DHT22;16344;50.364;8.944;2023-03-30T04:54:22;12.10;1.00
29353;DHT22;16344;50.364;8.944;2023-03-30T04:56:47;12.10;1.00
29353;DHT22;16344;50.364;8.944;2023-03-30T04:59:13;12.10;1.00
29353;DHT22;16344;50.364;8.944;2023-03-30T05:01:39;12.10;1.00
29353;DHT22;16344;50.364;8.944;2023-03-30T05:04:04;12.10;1.00
29353;DHT22;16344;50.364;8.944;2023-03-30T05:06:30;12.20;1.00
29353;DHT22;16344;50.364;8.944;2023-03-30T05:08:55;12.20;1.00
29353;DHT22;16344;50.364;8.944;2023-03-30T05:11:21;12.20;1.00
29353;DHT22;16344;50.364;8.944;2023-03-30T05:13:50;12.20;1.00
29353;DHT22;16344;50.364;8.944;2023-03-30T05:16:15;12.30;1.00
29353;DHT22;16344;50.364;8.944;2023-03-30T05:18:41;12.30;1.00
29353;DHT22;16344;50.364;8.944;2023-03-30T05:21:07;12.30;1.00
29353;DHT22;16344;50.364;8.944;2023-03-30T05:23:33;12.30;1.00
29353;DHT22;16344;50.364;8.944;2023-03-30T05:25:58;12.30;1.00
29353;DHT22;16344;50.364;8.944;2023-03-30T05:28:24;12.30;1.00
29353;DHT22;16344;50.364;8.944;2023-03-30T05:30:53;12.30;1.00
29353;DHT22;16344;50.364;8.944;2023-03-30T05:33:19;12.30;1.00
29353;DHT22;16344;50.364;8.944;2023-03-30T05:35:46;12.30;1.00
29353;DHT22;16344;50.364;8.944;2023-03-30T05:38:11;12.30;1.00
29353;DHT22;16344;50.364;8.944;2023-03-30T05:40:37;12.30;1.00
29353;DHT22;16344;50.364;8.944;2023-03-30T05:43:03;12.30;1.00
29353;DHT22;16344;50.364;8.944;2023-03-30T05:45:28;12.30;1.00
29353;DHT22;16344;50.364;8.944;2023-03-30T05:47:54;12.30;1.00
29353;DHT22;16344;50.364;8.944;2023-03-30T05:50:20;12.30;1.00
29353;DHT22;16344;50.364;8.944;2023-03-30T05:52:46;12.20;1.00
29353;DHT22;16344;50.364;8.944;2023-03-30T05:55:12;12.20;1.00
29353;DHT22;16344;50.364;8.944;2023-03-30T05:57:38;12.20;1.00
29353;DHT22;16344;50.364;8.944;2023-03-30T06:00:04;12.20;1.00
29353;DHT22;16344;50.364;8.944;2023-03-30T06:02:35;12.20;1.00
29353;DHT22;16344;50.364;8.944;2023-03-30T06:05:00;12.20;1.00
29353;DHT22;16344;50.364;8.944;2023-03-30T06:07:26;12.20;1.00
29353;DHT22;16344;50.364;8.944;2023-03-30T06:09:52;12.20;1.00
29353;DHT22;16344;50.364;8.944;2023-03-30T06:12:18;12.20;1.00
29353;DHT22;16344;50.364;8.944;2023-03-30T06:14:43;12.10;1.00
29353;DHT22;16344;50.364;8.944;2023-03-30T06:17:09;12.10;1.00
29353;DHT22;16344;50.364;8.944;2023-03-30T06:19:36;12.10;1.00
29353;DHT22;16344;50.364;8.944;2023-03-30T06:22:03;12.00;3.10
29353;DHT22;16344;50.364;8.944;2023-03-30T06:24:29;12.10;4.40
29353;DHT22;16344;50.364;8.944;2023-03-30T06:26:55;12.10;7.40
29353;DHT22;16344;50.364;8.944;2023-03-30T06:29:20;12.00;5.90
29353;DHT22;16344;50.364;8.944;2023-03-30T06:31:46;12.10;6.10
29353;DHT22;16344;50.364;8.944;2023-03-30T06:34:12;12.10;5.60
29353;DHT22;16344;50.364;8.944;2023-03-30T06:36:37;12.10;8.90
29353;DHT22;16344;50.364;8.944;2023-03-30T06:39:03;12.00;10.40
29353;DHT22;16344;50.364;8.944;2023-03-30T06:41:30;12.00;12.80
29353;DHT22;16344;50.364;8.944;2023-03-30T06:43:55;12.00;13.40
29353;DHT22;16344;50.364;8.944;2023-03-30T06:46:21;12.00;12.80
29353;DHT22;16344;50.364;8.944;2023-03-30T06:48:46;12.00;13.30
29353;DHT22;16344;50.364;8.944;2023-03-30T06:51:12;11.90;13.90
29353;DHT22;16344;50.364;8.944;2023-03-30T06:53:39;11.90;18.10
29353;DHT22;16344;50.364;8.944;2023-03-30T06:56:05;11.90;21.90
29353;DHT22;16344;50.364;8.944;2023-03-30T06:58:32;11.80;26.10
29353;DHT22;16344;50.364;8.944;2023-03-30T07:00:58;11.80;28.90
29353;DHT22;16344;50.364;8.944;2023-03-30T07:03:32;11.90;31.90
29353;DHT22;16344;50.364;8.944;2023-03-30T07:05:57;11.90;35.90
29353;DHT22;16344;50.364;8.944;2023-03-30T07:08:23;11.90;41.10
29353;DHT22;16344;50.364;8.944;2023-03-30T07:10:48;11.90;45.10
29353;DHT22;16344;50.364;8.944;2023-03-30T07:13:15;11.90;47.90
29353;DHT22;16344;50.364;8.944;2023-03-30T07:15:41;11.90;48.80
29353;DHT22;16344;50.364;8.944;2023-03-30T07:18:07;12.00;48.40
29353;DHT22;16344;50.364;8.944;2023-03-30T07:20:32;12.00;49.60
29353;DHT22;16344;50.364;8.944;2023-03-30T07:22:58;12.00;50.90
29353;DHT22;16344;50.364;8.944;2023-03-30T07:25:23;12.00;53.70
29353;DHT22;16344;50.364;8.944;2023-03-30T07:27:49;12.10;56.00
29353;DHT22;16344;50.364;8.944;2023-03-30T07:30:15;12.10;56.10
29353;DHT22;16344;50.364;8.944;2023-03-30T07:32:40;12.10;59.60
29353;DHT22;16344;50.364;8.944;2023-03-30T07:35:06;12.10;63.30
29353;DHT22;16344;50.364;8.944;2023-03-30T07:37:33;12.00;69.00
29353;DHT22;16344;50.364;8.944;2023-03-30T07:39:59;12.10;73.10
29353;DHT22;16344;50.364;8.944;2023-03-30T07:42:25;12.20;73.30
29353;DHT22;16344;50.364;8.944;2023-03-30T07:44:50;12.20;73.50
29353;DHT22;16344;50.364;8.944;2023-03-30T07:47:16;12.20;74.10
29353;DHT22;16344;50.364;8.944;2023-03-30T07:49:42;12.30;73.50
29353;DHT22;16344;50.364;8.944;2023-03-30T07:52:07;12.40;71.90
29353;DHT22;16344;50.364;8.944;2023-03-30T07:54:33;12.40;64.90
29353;DHT22;16344;50.364;8.944;2023-03-30T07:56:58;12.50;63.20
29353;DHT22;16344;50.364;8.944;2023-03-30T07:59:24;12.40;63.40
29353;DHT22;16344;50.364;8.944;2023-03-30T08:01:50;12.50;62.40
29353;DHT22;16344;50.364;8.944;2023-03-30T08:04:17;12.50;59.80
29353;DHT22;16344;50.364;8.944;2023-03-30T08:06:43;12.60;59.60
29353;DHT22;16344;50.364;8.944;2023-03-30T08:09:08;12.60;59.80
29353;DHT22;16344;50.364;8.944;2023-03-30T08:11:35;12.70;57.90
29353;DHT22;16344;50.364;8.944;2023-03-30T08:14:02;12.80;57.40
29353;DHT22;16344;50.364;8.944;2023-03-30T08:16:28;13.00;55.40
29353;DHT22;16344;50.364;8.944;2023-03-30T08:18:54;13.10;47.20
29353;DHT22;16344;50.364;8.944;2023-03-30T08:21:23;13.00;45.30
29353;DHT22;16344;50.364;8.944;2023-03-30T08:23:51;13.00;46.20
29353;DHT22;16344;50.364;8.944;2023-03-30T08:26:17;13.10;48.00
29353;DHT22;16344;50.364;8.944;2023-03-30T08:28:42;13.00;47.90
29353;DHT22;16344;50.364;8.944;2023-03-30T08:31:08;13.00;48.20
29353;DHT22;16344;50.364;8.944;2023-03-30T08:33:36;13.00;50.70
29353;DHT22;16344;50.364;8.944;2023-03-30T08:36:03;13.00;53.80
29353;DHT22;16344;50.364;8.944;2023-03-30T08:38:28;13.00;56.70
29353;DHT22;16344;50.364;8.944;2023-03-30T08:40:54;13.10;53.60
29353;DHT22;16344;50.364;8.944;2023-03-30T08:43:41;13.10;45.30
29353;DHT22;16344;50.364;8.944;2023-03-30T08:46:13;13.10;51.50
29353;DHT22;16344;50.364;8.944;2023-03-30T08:48:39;13.20;48.90
29353;DHT22;16344;50.364;8.944;2023-03-30T08:51:21;13.30;49.30
29353;DHT22;16344;50.364;8.944;2023-03-30T08:53:51;13.30;43.00
29353;DHT22;16344;50.364;8.944;2023-03-30T08:56:21;13.30;40.40
29353;DHT22;16344;50.364;8.944;2023-03-30T08:58:54;13.40;37.50
29353;DHT22;16344;50.364;8.944;2023-03-30T09:02:00;13.40;39.80
29353;DHT22;16344;50.364;8.944;2023-03-30T09:04:26;13.50;43.70
29353;DHT22;16344;50.364;8.944;2023-03-30T09:07:02;13.80;43.50
29353;DHT22;16344;50.364;8.944;2023-03-30T09:09:30;14.20;44.10
29353;DHT22;16344;50.364;8.944;2023-03-30T09:12:12;14.50;21.20
29353;DHT22;16344;50.364;8.944;2023-03-30T09:14:45;14.50;1.00
29353;DHT22;16344;50.364;8.944;2023-03-30T09:17:18;14.50;1.00
29353;DHT22;16344;50.364;8.944;2023-03-30T09:19:50;14.40;5.70
29353;DHT22;16344;50.364;8.944;2023-03-30T09:22:19;14.40;1.00
29353;DHT22;16344;50.364;8.944;2023-03-30T09:24:45;14.40;7.90
29353;DHT22;16344;50.364;8.944;2023-03-30T09:27:28;14.40;1.00
29353;DHT22;16344;50.364;8.944;2023-03-30T09:30:02;14.20;7.30
29353;DHT22;16344;50.364;8.944;2023-03-30T09:32:40;14.20;6.30
29353;DHT22;16344;50.364;8.944;2023-03-30T09:35:14;14.20;7.60
29353;DHT22;16344;50.364;8.944;2023-03-30T09:37:40;14.20;13.20
29353;DHT22;16344;50.364;8.944;2023-03-30T09:43:29;14.30;9.70
29353;DHT22;16344;50.364;8.944;2023-03-30T09:45:58;14.30;11.40
29353;DHT22;16344;50.364;8.944;2023-03-30T09:48:25;14.20;12.80
29353;DHT22;16344;50.364;8.944;2023-03-30T09:50:50;14.20;19.50
29353;DHT22;16344;50.364;8.944;2023-03-30T09:58:32;14.10;17.10
29353;DHT22;16344;50.364;8.944;2023-03-30T10:01:16;14.10;17.90
29353;DHT22;16344;50.364;8.944;2023-03-30T10:03:43;14.10;16.00
29353;DHT22;16344;50.364;8.944;2023-03-30T10:06:19;14.10;20.80
29353;DHT22;16344;50.364;8.944;2023-03-30T10:08:49;14.20;16.20
29353;DHT22;16344;50.364;8.944;2023-03-30T10:11:20;14.20;8.60
29353;DHT22;16344;50.364;8.944;2023-03-30T10:13:48;14.40;10.20
29353;DHT22;16344;50.364;8.944;2023-03-30T10:16:24;14.50;13.50
29353;DHT22;16344;50.364;8.944;2023-03-30T10:18:53;14.60;1.00
29353;DHT22;16344;50.364;8.944;2023-03-30T10:21:21;14.70;1.00
29353;DHT22;16344;50.364;8.944;2023-03-30T10:24:15;14.70;1.00
29353;DHT22;16344;50.364;8.944;2023-03-30T10:26:46;14.70;1.00
29353;DHT22;16344;50.364;8.944;2023-03-30T10:29:14;14.80;1.00
29353;DHT22;16344;50.364;8.944;2023-03-30T10:31:45;14.90;1.00
29353;DHT22;16344;50.364;8.944;2023-03-30T10:34:29;14.90;1.00
29353;DHT22;16344;50.364;8.944;2023-03-30T10:36:57;15.00;1.00
29353;DHT22;16344;50.364;8.944;2023-03-30T10:39:31;15.00;1.00
29353;DHT22;16344;50.364;8.944;2023-03-30T10:41:59;15.00;1.00
29353;DHT22;16344;50.364;8.944;2023-03-30T10:44:35;15.10;1.00
29353;DHT22;16344;50.364;8.944;2023-03-30T10:47:34;15.20;1.00
29353;DHT22;16344;50.364;8.944;2023-03-30T10:53:12;15.40;1.00
29353;DHT22;16344;50.364;8.944;2023-03-30T11:01:20;15.50;1.00
29353;DHT22;16344;50.364;8.944;2023-03-30T11:03:53;15.50;1.00
29353;DHT22;16344;50.364;8.944;2023-03-30T11:06:26;15.40;1.00
29353;DHT22;16344;50.364;8.944;2023-03-30T11:08:55;15.40;1.00
29353;DHT22;16344;50.364;8.944;2023-03-30T11:11:37;15.50;1.00
29353;DHT22;16344;50.364;8.944;2023-03-30T11:14:24;15.50;1.00
29353;DHT22;16344;50.364;8.944;2023-03-30T11:16:54;15.70;1.00
29353;DHT22;16344;50.364;8.944;2023-03-30T11:19:34;16.20;1.00
29353;DHT22;16344;50.364;8.944;2023-03-30T11:22:14;16.60;1.00
29353;DHT22;16344;50.364;8.944;2023-03-30T11:24:43;16.70;1.00
29353;DHT22;16344;50.364;8.944;2023-03-30T11:27:23;16.80;1.00
29353;DHT22;16344;50.364;8.944;2023-03-30T11:30:10;17.00;99.90
29353;DHT22;16344;50.364;8.944;2023-03-30T11:35:40;17.30;99.90
29353;DHT22;16344;50.364;8.944;2023-03-30T11:38:32;17.20;99.90
29353;DHT22;16344;50.364;8.944;2023-03-30T11:41:08;17.30;99.90
29353;DHT22;16344;50.364;8.944;2023-03-30T11:43:34;17.40;99.90
29353;DHT22;16344;50.364;8.944;2023-03-30T11:49:03;17.80;99.90
29353;DHT22;16344;50.364;8.944;2023-03-30T11:52:22;17.90;99.90
29353;DHT22;16344;50.364;8.944;2023-03-30T11:54:56;17.80;99.90
29353;DHT22;16344;50.364;8.944;2023-03-30T12:00:39;18.20;99.90
29353;DHT22;16344;50.364;8.944;2023-03-30T12:03:21;18.10;49.50
29353;DHT22;16344;50.364;8.944;2023-03-30T12:05:59;17.90;5.90
29353;DHT22;16344;50.364;8.944;2023-03-30T12:11:24;17.60;5.10
29353;DHT22;16344;50.364;8.944;2023-03-30T12:13:52;17.40;15.90
29353;DHT22;16344;50.364;8.944;2023-03-30T12:16:39;17.30;11.30
29353;DHT22;16344;50.364;8.944;2023-03-30T12:19:12;17.20;1.00
29353;DHT22;16344;50.364;8.944;2023-03-30T12:22:00;17.10;1.00
29353;DHT22;16344;50.364;8.944;2023-03-30T12:24:36;16.40;1.00
29353;DHT22;16344;50.364;8.944;2023-03-30T12:27:03;15.40;67.20
29353;DHT22;16344;50.364;8.944;2023-03-30T12:29:50;14.80;99.90
29353;DHT22;16344;50.364;8.944;2023-03-30T12:32:21;14.60;99.90
29353;DHT22;16344;50.364;8.944;2023-03-30T12:34:47;14.50;99.90
29353;DHT22;16344;50.364;8.944;2023-03-30T12:39:54;14.20;99.90
29353;DHT22;16344;50.364;8.944;2023-03-30T12:42:26;14.10;1.00
29353;DHT22;16344;50.364;8.944;2023-03-30T12:59:26;13.90;99.90
29353;DHT22;16344;50.364;8.944;2023-03-30T13:02:39;13.70;99.90
29353;DHT22;16344;50.364;8.944;2023-03-30T13:05:15;13.60;1.00
29353;DHT22;16344;50.364;8.944;2023-03-30T13:07:42;13.50;1.00
29353;DHT22;16344;50.364;8.944;2023-03-30T13:12:57;13.20;1.00
29353;DHT22;16344;50.364;8.944;2023-03-30T13:31:39;13.40;1.00
29353;DHT22;16344;50.364;8.944;2023-03-30T13:36:58;13.40;1.00
29353;DHT22;16344;50.364;8.944;2023-03-30T13:39:34;13.50;1.00
29353;DHT22;16344;50.364;8.944;2023-03-30T13:42:21;13.50;1.00
29353;DHT22;16344;50.364;8.944;2023-03-30T13:48:29;13.40;1.00
29353;DHT22;16344;50.364;8.944;2023-03-30T13:50:58;13.40;1.00
29353;DHT22;16344;50.364;8.944;2023-03-30T13:53:29;13.60;1.00
29353;DHT22;16344;50.364;8.944;2023-03-30T13:55:55;13.60;1.00
29353;DHT22;16344;50.364;8.944;2023-03-30T13:58:30;13.60;1.00
29353;DHT22;16344;50.364;8.944;2023-03-30T14:01:12;13.60;1.00
29353;DHT22;16344;50.364;8.944;2023-03-30T14:03:50;13.50;1.00
29353;DHT22;16344;50.364;8.944;2023-03-30T14:06:19;13.40;1.00
29353;DHT22;16344;50.364;8.944;2023-03-30T14:08:49;13.40;1.00
29353;DHT22;16344;50.364;8.944;2023-03-30T14:11:20;13.50;1.00
29353;DHT22;16344;50.364;8.944;2023-03-30T14:13:49;13.70;1.00
29353;DHT22;16344;50.364;8.944;2023-03-30T14:16:25;13.90;1.00
29353;DHT22;16344;50.364;8.944;2023-03-30T14:18:53;14.20;1.00
29353;DHT22;16344;50.364;8.944;2023-03-30T14:21:28;14.30;1.00
29353;DHT22;16344;50.364;8.944;2023-03-30T14:23:55;14.40;1.00
29353;DHT22;16344;50.364;8.944;2023-03-30T14:26:23;14.50;1.00
29353;DHT22;16344;50.364;8.944;2023-03-30T14:28:56;14.50;1.00
29353;DHT22;16344;50.364;8.944;2023-03-30T14:31:23;14.50;1.00
29353;DHT22;16344;50.364;8.944;2023-03-30T14:33:51;14.60;1.00
29353;DHT22;16344;50.364;8.944;2023-03-30T14:36:18;14.40;1.00
29353;DHT22;16344;50.364;8.944;2023-03-30T14:38:46;14.40;1.00
29353;DHT22;16344;50.364;8.944;2023-03-30T14:44:05;14.40;1.00
29353;DHT22;16344;50.364;8.944;2023-03-30T14:46:45;14.40;99.90
29353;DHT22;16344;50.364;8.944;2023-03-30T14:49:20;14.50;99.90
29353;DHT22;16344;50.364;8.944;2023-03-30T14:51:48;14.70;99.90
29353;DHT22;16344;50.364;8.944;2023-03-30T14:54:22;14.90;99.90
29353;DHT22;16344;50.364;8.944;2023-03-30T14:56:59;14.90;99.90
29353;DHT22;16344;50.364;8.944;2023-03-30T14:59:26;14.90;99.90
29353;DHT22;16344;50.364;8.944;2023-03-30T15:01:53;15.00;99.90
29353;DHT22;16344;50.364;8.944;2023-03-30T15:04:23;15.10;99.90
29353;DHT22;16344;50.364;8.944;2023-03-30T15:06:50;15.20;99.90
29353;DHT22;16344;50.364;8.944;2023-03-30T15:09:19;15.30;99.90
29353;DHT22;16344;50.364;8.944;2023-03-30T15:11:50;15.50;99.90
29353;DHT22;16344;50.364;8.944;2023-03-30T15:14:18;15.60;99.90
29353;DHT22;16344;50.364;8.944;2023-03-30T15:16:46;15.50;99.90
29353;DHT22;16344;50.364;8.944;2023-03-30T15:19:23;15.40;99.90
29353;DHT22;16344;50.364;8.944;2023-03-30T15:21:50;15.40;99.90
29353;DHT22;16344;50.364;8.944;2023-03-30T15:24:21;15.50;99.90
29353;DHT22;16344;50.364;8.944;2023-03-30T15:26:48;15.60;99.90
29353;DHT22;16344;50.364;8.944;2023-03-30T15:29:15;15.70;99.90
29353;DHT22;16344;50.364;8.944;2023-03-30T15:31:43;15.60;99.90
29353;DHT22;16344;50.364;8.944;2023-03-30T15:34:14;15.60;99.90
29353;DHT22;16344;50.364;8.944;2023-03-30T15:36:40;15.60;99.90
29353;DHT22;16344;50.364;8.944;2023-03-30T15:39:20;15.50;99.90
29353;DHT22;16344;50.364;8.944;2023-03-30T15:41:58;15.40;99.90
29353;DHT22;16344;50.364;8.944;2023-03-30T15:44:26;15.40;99.90
29353;DHT22;16344;50.364;8.944;2023-03-30T15:46:54;15.30;99.90
29353;DHT22;16344;50.364;8.944;2023-03-30T15:49:38;15.30;99.90
29353;DHT22;16344;50.364;8.944;2023-03-30T15:52:13;15.20;99.90
29353;DHT22;16344;50.364;8.944;2023-03-30T15:54:48;15.10;99.90
29353;DHT22;16344;50.364;8.944;2023-03-30T15:57:22;15.00;99.90
29353;DHT22;16344;50.364;8.944;2023-03-30T15:59:56;14.90;99.90
29353;DHT22;16344;50.364;8.944;2023-03-30T16:04:57;14.80;99.90
29353;DHT22;16344;50.364;8.944;2023-03-30T16:07:24;14.80;99.90
29353;DHT22;16344;50.364;8.944;2023-03-30T16:09:50;14.80;99.90
29353;DHT22;16344;50.364;8.944;2023-03-30T16:12:26;14.80;99.90
29353;DHT22;16344;50.364;8.944;2023-03-30T16:14:53;14.60;99.90
29353;DHT22;16344;50.364;8.944;2023-03-30T16:17:19;14.60;99.90
29353;DHT22;16344;50.364;8.944;2023-03-30T16:19:45;14.50;99.90
29353;DHT22;16344;50.364;8.944;2023-03-30T16:22:12;14.50;99.90
29353;DHT22;16344;50.364;8.944;2023-03-30T16:24:38;14.50;99.90
29353;DHT22;16344;50.364;8.944;2023-03-30T16:27:04;14.50;99.90
29353;DHT22;16344;50.364;8.944;2023-03-30T16:29:31;14.50;99.90
29353;DHT22;16344;50.364;8.944;2023-03-30T16:31:57;14.60;99.90
29353;DHT22;16344;50.364;8.944;2023-03-30T16:34:23;14.50;99.90
29353;DHT22;16344;50.364;8.944;2023-03-30T16:36:49;14.50;99.90
29353;DHT22;16344;50.364;8.944;2023-03-30T16:41:47;14.50;99.90
29353;DHT22;16344;50.364;8.944;2023-03-30T16:44:13;14.40;99.90
29353;DHT22;16344;50.364;8.944;2023-03-30T16:46:38;14.40;99.90
29353;DHT22;16344;50.364;8.944;2023-03-30T16:49:09;14.40;99.90
29353;DHT22;16344;50.364;8.944;2023-03-30T16:51:36;14.40;99.90
29353;DHT22;16344;50.364;8.944;2023-03-30T16:54:01;14.30;99.90
29353;DHT22;16344;50.364;8.944;2023-03-30T16:56:27;14.30;99.90
29353;DHT22;16344;50.364;8.944;2023-03-30T16:58:53;14.20;99.90
29353;DHT22;16344;50.364;8.944;2023-03-30T17:01:18;14.10;1.00
29353;DHT22;16344;50.364;8.944;2023-03-30T17:03:44;14.20;99.90
29353;DHT22;16344;50.364;8.944;2023-03-30T17:06:10;14.20;99.90
29353;DHT22;16344;50.364;8.944;2023-03-30T17:08:35;14.20;99.90
29353;DHT22;16344;50.364;8.944;2023-03-30T17:11:02;14.20;99.90
29353;DHT22;16344;50.364;8.944;2023-03-30T17:13:29;14.20;99.90
29353;DHT22;16344;50.364;8.944;2023-03-30T17:15:56;14.20;99.90
29353;DHT22;16344;50.364;8.944;2023-03-30T17:18:24;14.30;99.90
29353;DHT22;16344;50.364;8.944;2023-03-30T17:20:54;14.20;99.90
29353;DHT22;16344;50.364;8.944;2023-03-30T17:23:21;14.20;99.90
29353;DHT22;16344;50.364;8.944;2023-03-30T17:25:48;14.20;99.90
29353;DHT22;16344;50.364;8.944;2023-03-30T17:30:43;14.20;99.90
29353;DHT22;16344;50.364;8.944;2023-03-30T17:33:09;14.20;99.90
29353;DHT22;16344;50.364;8.944;2023-03-30T17:35:37;14.10;99.90
29353;DHT22;16344;50.364;8.944;2023-03-30T17:38:04;14.10;99.90
29353;DHT22;16344;50.364;8.944;2023-03-30T17:40:32;14.10;99.90
29353;DHT22;16344;50.364;8.944;2023-03-30T17:42:57;14.00;99.90
29353;DHT22;16344;50.364;8.944;2023-03-30T17:45:25;13.90;99.90
29353;DHT22;16344;50.364;8.944;2023-03-30T17:47:50;13.80;99.90
29353;DHT22;16344;50.364;8.944;2023-03-30T17:50:20;13.80;99.90